Time;durP1;ratioP1;P1;durP2;ratioP2;P2;SDS_P1;SDS_P2;PMS_P1;PMS_P2;Temp;Humidity;BMP_temperature;BMP_pressure;BME280_temperature;BME280_humidity;BME280_pressure;Samples;Min_cycle;Max_cycle;Signal;HPM_P1;HPM_P2
2021/12/14 00:01:35;;;;;;;181.48;54.67;;;;;;;-1.35;100.00;99882.62;4348926;32;20162;-70
2021/12/14 00:04:10;;;;;;;221.55;63.35;;;;;;;-1.31;100.00;99884.84;4346885;32;20320;-71
2021/12/14 00:06:38;;;;;;;210.32;61.50;;;;;;;-1.52;100.00;99840.22;4334159;33;20036;-71
2021/12/14 00:09:09;;;;;;;190.40;57.35;;;;;;;-1.46;100.00;99842.25;4341360;32;20097;-71
2021/12/14 00:16:50;;;;;;;195.35;58.22;;;;;;;-1.41;100.00;99833.03;4350683;32;20044;-70
2021/12/14 00:19:18;;;;;;;195.23;57.53;;;;;;;-1.14;100.00;99885.78;4351854;32;20077;-71
2021/12/14 00:21:50;;;;;;;170.12;56.13;;;;;;;-1.07;100.00;99877.25;4349297;32;20442;-71
2021/12/14 00:24:18;;;;;;;188.00;58.05;;;;;;;-1.07;100.00;99871.97;4353058;32;20048;-70
2021/12/14 00:26:56;;;;;;;184.52;56.25;;;;;;;-1.05;100.00;99872.63;4343045;33;20048;-72
2021/12/14 00:29:30;;;;;;;180.80;56.78;;;;;;;-1.25;100.00;99838.44;4347465;33;20085;-73
2021/12/14 00:32:00;;;;;;;175.87;52.95;;;;;;;-1.29;100.00;99847.69;4352763;32;20052;-72
2021/12/14 00:34:40;;;;;;;157.52;51.42;;;;;;;-1.24;100.00;99837.47;4326619;33;20072;-73
2021/12/14 00:37:09;;;;;;;154.75;49.55;;;;;;;-1.19;100.00;99859.00;4350294;32;20052;-72
2021/12/14 00:39:39;;;;;;;183.20;54.50;;;;;;;-0.99;100.00;99872.00;4342245;32;20048;-72
2021/12/14 00:42:06;;;;;;;163.48;51.53;;;;;;;-0.89;100.00;99883.34;4344839;32;20174;-72
2021/12/14 00:44:33;;;;;;;156.35;48.47;;;;;;;-0.92;100.00;99886.28;4358129;32;20433;-72
2021/12/14 00:47:01;;;;;;;174.57;55.60;;;;;;;-1.17;100.00;99849.09;4356519;32;20155;-73
2021/12/14 00:49:28;;;;;;;170.68;55.30;;;;;;;-0.94;100.00;99869.75;4353496;32;20036;-72
2021/12/14 00:51:55;;;;;;;183.40;57.42;;;;;;;-0.91;100.00;99882.62;4342150;32;20084;-72
2021/12/14 00:54:22;;;;;;;164.05;51.65;;;;;;;-0.97;100.00;99878.00;4340574;32;20044;-72
2021/12/14 00:56:51;;;;;;;152.50;51.10;;;;;;;-1.04;100.00;99869.00;4346115;32;20163;-72
2021/12/14 00:59:20;;;;;;;171.70;50.85;;;;;;;-1.18;100.00;99842.16;4351945;32;20447;-72
2021/12/14 01:01:54;;;;;;;162.77;50.55;;;;;;;-0.94;100.00;99880.34;4349077;32;20984;-72
2021/12/14 01:04:29;;;;;;;170.32;58.50;;;;;;;-1.04;100.00;99890.16;4353401;32;20114;-72
2021/12/14 01:06:58;;;;;;;163.82;52.92;;;;;;;-1.08;100.00;99878.25;4347453;32;20381;-73
2021/12/14 01:09:28;;;;;;;160.98;53.13;;;;;;;-0.99;100.00;99880.78;4365397;32;20047;-72
2021/12/14 01:12:02;;;;;;;160.48;51.92;;;;;;;-1.22;100.00;99840.78;4369433;32;20082;-71
2021/12/14 01:15:22;;;;;;;173.07;51.85;;;;;;;-1.00;100.00;99888.88;4369680;32;20044;-72
2021/12/14 01:18:01;;;;;;;164.55;53.22;;;;;;;-1.05;100.00;99873.47;4356698;32;20096;-72
2021/12/14 01:20:36;;;;;;;173.90;50.70;;;;;;;-1.01;100.00;99871.34;4354212;33;20051;-72
2021/12/14 01:23:14;;;;;;;171.00;53.90;;;;;;;-0.91;100.00;99874.72;4363420;32;20069;-72
2021/12/14 01:25:45;;;;;;;170.07;52.88;;;;;;;-0.93;100.00;99876.69;4351696;32;20094;-71
2021/12/14 01:28:17;;;;;;;144.87;48.05;;;;;;;-1.14;100.00;99838.22;4367364;32;20065;-72
2021/12/14 01:34:21;;;;;;;166.02;53.60;;;;;;;-0.81;100.00;99883.38;4360599;32;20048;-72
2021/12/14 01:36:55;;;;;;;165.30;53.00;;;;;;;-1.07;100.00;99840.25;4349262;33;20035;-72
2021/12/14 01:42:16;;;;;;;179.23;56.05;;;;;;;-0.97;100.00;99851.56;4369268;32;20073;-72
2021/12/14 01:44:50;;;;;;;165.40;52.65;;;;;;;-1.27;100.00;99789.41;4365948;32;20078;-73
2021/12/14 01:47:21;;;;;;;191.27;58.60;;;;;;;-0.92;100.00;99857.22;4362266;32;20056;-72
2021/12/14 01:49:55;;;;;;;173.62;54.00;;;;;;;-0.96;100.00;99871.72;4355540;32;20472;-71
2021/12/14 01:52:31;;;;;;;172.50;58.75;;;;;;;-0.88;100.00;99869.13;4368689;32;20043;-72
2021/12/14 01:55:07;;;;;;;185.18;55.88;;;;;;;-1.13;100.00;99824.03;4353914;33;20055;-70
2021/12/14 01:57:36;;;;;;;182.77;58.15;;;;;;;-1.11;100.00;99826.50;4355146;32;20112;-71
2021/12/14 02:00:09;;;;;;;181.98;56.88;;;;;;;-0.80;100.00;99881.56;4345302;32;20113;-71
2021/12/14 02:02:44;;;;;;;191.25;59.75;;;;;;;-1.07;100.00;99837.59;4356961;32;20114;-71
2021/12/14 02:05:38;;;;;;;183.65;58.63;;;;;;;-0.77;100.00;99887.37;4354656;32;20056;-71
2021/12/14 02:08:19;;;;;;;172.10;51.33;;;;;;;-0.82;100.00;99883.53;4349131;32;20042;-72
2021/12/14 02:10:47;;;;;;;198.73;58.17;;;;;;;-0.81;100.00;99891.31;4355872;32;20040;-71
2021/12/14 02:13:25;;;;;;;182.15;53.10;;;;;;;-1.02;100.00;99851.16;4362248;32;20047;-71
2021/12/14 02:15:53;;;;;;;180.95;57.38;;;;;;;-0.87;100.00;99876.06;4368144;32;20065;-73
2021/12/14 02:18:23;;;;;;;173.07;55.42;;;;;;;-0.75;100.00;99890.72;4356654;32;20059;-71
2021/12/14 02:21:03;;;;;;;183.10;55.12;;;;;;;-0.71;100.00;99883.28;4368841;32;20070;-72
2021/12/14 02:23:32;;;;;;;173.98;54.30;;;;;;;-0.68;100.00;99890.09;4370509;32;20069;-71
2021/12/14 02:26:03;;;;;;;198.52;54.55;;;;;;;-0.69;100.00;99880.50;4367785;32;20397;-72
2021/12/14 02:28:30;;;;;;;193.27;54.95;;;;;;;-0.73;100.00;99878.16;4371432;32;20834;-72
2021/12/14 02:30:59;;;;;;;173.87;54.58;;;;;;;-1.19;100.00;99819.34;4371638;32;20052;-71
2021/12/14 02:33:32;;;;;;;182.10;56.92;;;;;;;-1.10;100.00;99828.19;4371619;32;20385;-72
2021/12/14 02:36:04;;;;;;;199.73;56.22;;;;;;;-0.88;100.00;99869.13;4362977;32;20070;-72
2021/12/14 02:38:30;;;;;;;201.52;58.53;;;;;;;-0.83;100.00;99866.84;4367417;32;20046;-72
2021/12/14 02:41:02;;;;;;;193.23;58.35;;;;;;;-1.05;100.00;99819.75;4358106;32;20087;-71
2021/12/14 02:43:36;;;;;;;210.82;61.08;;;;;;;-0.96;100.00;99837.34;4357662;32;20048;-71
2021/12/14 02:46:07;;;;;;;160.25;48.08;;;;;;;-0.83;100.00;99861.56;4369204;32;20070;-72
2021/12/14 02:48:45;;;;;;;198.07;61.63;;;;;;;-0.89;100.00;99851.59;4358482;32;20056;-72
2021/12/14 02:51:17;;;;;;;216.70;63.97;;;;;;;-0.78;100.00;99864.56;4371729;32;20043;-72
2021/12/14 02:53:47;;;;;;;188.23;58.87;;;;;;;-0.77;100.00;99870.69;4362511;32;20100;-73
2021/12/14 02:56:17;;;;;;;194.48;55.85;;;;;;;-0.98;100.00;99853.34;4367028;32;20063;-71
2021/12/14 02:58:45;;;;;;;197.50;59.97;;;;;;;-0.97;100.00;99860.31;4364388;32;20393;-73
2021/12/14 03:01:16;;;;;;;190.93;58.00;;;;;;;-1.27;100.00;99806.06;4361513;32;20055;-72
2021/12/14 03:03:43;;;;;;;184.25;58.15;;;;;;;-1.31;100.00;99807.34;4366584;32;20476;-73
2021/12/14 03:06:18;;;;;;;201.05;59.75;;;;;;;-1.00;100.00;99851.88;4367231;32;20052;-72
2021/12/14 03:08:56;;;;;;;190.50;55.47;;;;;;;-1.29;100.00;99808.06;4357581;32;20353;-72
2021/12/14 03:11:24;;;;;;;187.15;52.88;;;;;;;-1.16;100.00;99829.59;4365382;32;20323;-73
2021/12/14 03:13:53;;;;;;;187.55;55.83;;;;;;;-1.23;100.00;99807.41;4359096;32;20050;-71
2021/12/14 03:16:35;;;;;;;196.45;53.45;;;;;;;-1.26;100.00;99807.75;4370387;32;20047;-71
2021/12/14 03:19:06;;;;;;;179.57;53.05;;;;;;;-1.05;100.00;99846.19;4363833;32;20039;-71
2021/12/14 03:21:37;;;;;;;205.93;61.78;;;;;;;-0.96;100.00;99850.56;4359924;32;20091;-71
2021/12/14 03:24:10;;;;;;;193.87;59.03;;;;;;;-1.30;100.00;99803.75;4369987;32;20353;-72
2021/12/14 03:26:41;;;;;;;213.80;61.05;;;;;;;-1.32;100.00;99808.34;4367668;32;20108;-71
2021/12/14 03:29:16;;;;;;;203.77;55.72;;;;;;;-1.46;100.00;99786.78;4364586;32;20069;-73
2021/12/14 03:31:45;;;;;;;185.85;57.22;;;;;;;-1.11;100.00;99851.13;4343691;32;20070;-71
2021/12/14 03:34:22;;;;;;;204.43;54.83;;;;;;;-0.97;100.00;99848.91;4356419;32;20196;-71
2021/12/14 03:36:55;;;;;;;204.27;53.00;;;;;;;-0.94;100.00;99854.72;4350051;32;20057;-72
2021/12/14 03:39:25;;;;;;;182.15;55.40;;;;;;;-0.94;100.00;99853.91;4359083;32;20066;-72
2021/12/14 03:42:00;;;;;;;166.60;51.03;;;;;;;-0.94;100.00;99848.59;4360407;32;20079;-72
2021/12/14 03:44:31;;;;;;;168.43;51.28;;;;;;;-1.02;100.00;99832.66;4361596;32;20161;-72
2021/12/14 03:47:21;;;;;;;176.23;49.85;;;;;;;-1.03;100.00;99838.97;4363314;32;20044;-72
2021/12/14 03:49:54;;;;;;;174.55;47.30;;;;;;;-1.25;100.00;99793.53;4364846;32;20477;-72
2021/12/14 03:52:25;;;;;;;169.70;52.30;;;;;;;-1.04;100.00;99821.44;4356246;32;20553;-72
2021/12/14 03:54:57;;;;;;;192.40;56.63;;;;;;;-0.83;100.00;99850.13;4368430;32;20035;-72
2021/12/14 03:57:24;;;;;;;171.15;49.20;;;;;;;-1.10;100.00;99799.91;4371145;32;20061;-72
2021/12/14 03:59:52;;;;;;;162.60;48.92;;;;;;;-0.79;100.00;99840.94;4366242;32;20032;-71
2021/12/14 04:02:19;;;;;;;162.90;52.83;;;;;;;-0.79;100.00;99849.69;4365502;32;20083;-73
2021/12/14 04:05:01;;;;;;;162.00;49.50;;;;;;;-0.82;100.00;99842.06;4355259;32;20075;-71
2021/12/14 04:07:29;;;;;;;163.70;47.72;;;;;;;-0.86;100.00;99831.94;4364653;32;20058;-71
2021/12/14 04:09:57;;;;;;;165.15;49.28;;;;;;;-0.82;100.00;99831.47;4363694;32;20048;-70
2021/12/14 04:12:25;;;;;;;157.77;47.15;;;;;;;-0.76;100.00;99844.06;4354023;32;20040;-71
2021/12/14 04:14:55;;;;;;;165.60;47.13;;;;;;;-0.84;100.00;99832.63;4362007;32;20051;-71
2021/12/14 04:17:27;;;;;;;168.60;46.42;;;;;;;-0.78;100.00;99846.06;4371257;32;20048;-70
2021/12/14 04:19:54;;;;;;;179.90;52.35;;;;;;;-0.77;100.00;99847.69;4358991;32;20391;-71
2021/12/14 04:22:27;;;;;;;163.35;48.53;;;;;;;-0.86;100.00;99829.31;4368216;32;20043;-73
2021/12/14 04:25:00;;;;;;;149.82;47.25;;;;;;;-0.78;100.00;99843.41;4369972;32;20083;-71
2021/12/14 04:27:29;;;;;;;;;;;;;;;-0.78;100.00;99838.12;4368187;32;20377;-70
2021/12/14 04:29:56;;;;;;;150.32;45.78;;;;;;;-0.74;100.00;99850.03;4365622;32;19945;-70
2021/12/14 04:32:23;;;;;;;162.07;46.10;;;;;;;-0.93;100.00;99803.47;4358649;32;20036;-73
2021/12/14 04:34:52;;;;;;;165.23;50.58;;;;;;;-0.83;100.00;99818.41;4369630;32;20422;-71
2021/12/14 04:37:20;;;;;;;180.55;52.70;;;;;;;-0.90;100.00;99807.62;4362785;32;20078;-71
2021/12/14 04:39:58;;;;;;;178.27;51.72;;;;;;;-0.70;100.00;99844.44;4363421;32;20108;-70
2021/12/14 04:53:48;;;;;;;177.43;49.90;;;;;;;-0.73;100.00;99833.19;4354731;32;20027;-71
2021/12/14 04:56:20;;;;;;;149.57;46.78;;;;;;;-0.56;100.00;99841.19;4363070;32;20057;-70
2021/12/14 04:58:54;;;;;;;172.70;50.47;;;;;;;-0.56;100.00;99835.91;4367186;32;20501;-71
2021/12/14 05:01:21;;;;;;;175.02;51.47;;;;;;;-0.57;100.00;99832.44;4362114;32;20085;-73
2021/12/14 05:03:53;;;;;;;164.48;49.08;;;;;;;-0.49;100.00;99846.72;4355392;32;20317;-73
2021/12/14 05:06:24;;;;;;;161.88;54.15;;;;;;;-0.55;100.00;99842.88;4355671;32;20031;-73
2021/12/14 05:11:23;;;;;;;174.57;54.60;;;;;;;-0.90;100.00;99807.62;4364095;32;20053;-71
2021/12/14 05:13:54;;;;;;;183.00;53.95;;;;;;;-0.81;100.00;99822.56;4366041;32;20077;-71
2021/12/14 05:16:24;;;;;;;168.52;49.90;;;;;;;-0.63;100.00;99845.47;4347629;33;20054;-71
2021/12/14 05:18:55;;;;;;;152.75;47.22;;;;;;;-0.73;100.00;99833.19;4354883;32;20035;-71
2021/12/14 05:21:26;;;;;;;176.10;52.37;;;;;;;-0.73;100.00;99835.84;4353268;32;20032;-71
2021/12/14 05:23:53;;;;;;;184.43;50.33;;;;;;;-0.72;100.00;99852.53;4364693;32;20119;-70
2021/12/14 05:26:21;;;;;;;183.37;50.63;;;;;;;-0.77;100.00;99850.34;4366158;32;20088;-72
2021/12/14 05:28:52;;;;;;;178.50;51.45;;;;;;;-0.63;100.00;99850.78;4361654;32;20044;-74
2021/12/14 05:31:21;;;;;;;188.30;53.40;;;;;;;-0.61;100.00;99854.06;4359830;32;20073;-72
2021/12/14 05:33:49;;;;;;;174.02;50.90;;;;;;;-0.71;100.00;99843.63;4365267;32;20065;-72
2021/12/14 05:36:19;;;;;;;193.77;54.20;;;;;;;-0.78;100.00;99832.84;4369034;32;20425;-72
2021/12/14 05:44:30;;;;;;;176.87;50.47;;;;;;;-0.75;100.00;99839.59;4353083;32;20057;-72
2021/12/14 05:47:03;;;;;;;159.40;49.67;;;;;;;-0.71;100.00;99837.50;4355435;32;20377;-72
2021/12/14 05:49:30;;;;;;;167.02;49.10;;;;;;;-0.71;100.00;99834.84;4364984;32;20048;-71
2021/12/14 05:52:00;;;;;;;186.07;55.17;;;;;;;-0.74;100.00;99831.53;4359760;32;20101;-72
2021/12/14 05:54:29;;;;;;;177.82;54.10;;;;;;;-0.92;100.00;99785.81;4358003;32;20031;-72
2021/12/14 05:57:01;;;;;;;211.30;60.03;;;;;;;-0.74;100.00;99828.88;4370874;32;20069;-71
2021/12/14 05:59:31;;;;;;;198.65;54.25;;;;;;;-0.87;100.00;99817.91;4368339;32;20467;-72
2021/12/14 06:02:04;;;;;;;211.95;61.13;;;;;;;-0.91;100.00;99805.97;4368550;32;20027;-74
2021/12/14 06:04:45;;;;;;;218.07;59.65;;;;;;;-0.76;100.00;99804.41;4361992;32;20468;-70
2021/12/14 06:07:15;;;;;;;220.15;57.70;;;;;;;-0.85;100.00;99800.06;4369832;32;20028;-71
2021/12/14 06:09:46;;;;;;;236.77;59.85;;;;;;;-1.00;100.00;99772.56;4367655;32;20086;-71
2021/12/14 06:12:19;;;;;;;217.57;56.13;;;;;;;-1.06;100.00;99762.59;4364958;32;20032;-71
2021/12/14 06:14:51;;;;;;;241.23;57.17;;;;;;;-0.89;100.00;99814.59;4357384;32;20039;-72
2021/12/14 06:17:26;;;;;;;208.55;53.38;;;;;;;-0.89;100.00;99814.59;4357958;32;20162;-71
2021/12/14 06:19:57;;;;;;;222.20;55.17;;;;;;;-0.87;100.00;99812.63;4356308;32;20059;-73
2021/12/14 06:22:24;;;;;;;222.55;53.42;;;;;;;-0.83;100.00;99819.25;4362095;32;20059;-71
2021/12/14 06:28:03;;;;;;;203.95;52.80;;;;;;;-0.81;100.00;99816.47;4373672;32;20064;-72
2021/12/14 06:30:59;;;;;;;213.57;57.20;;;;;;;-1.01;100.00;99799.97;4371824;32;20040;-72
2021/12/14 06:33:32;;;;;;;186.85;53.25;;;;;;;-0.89;100.00;99809.31;4355923;32;20047;-72
2021/12/14 06:36:01;;;;;;;213.48;54.45;;;;;;;-1.06;100.00;99754.69;4369691;32;20073;-73
2021/12/14 06:38:32;;;;;;;193.90;52.28;;;;;;;-0.79;100.00;99794.16;4350996;32;20050;-72
2021/12/14 06:41:11;;;;;;;191.82;52.42;;;;;;;-0.73;100.00;99812.03;4361505;32;20073;-75
2021/12/14 06:43:54;;;;;;;205.30;54.22;;;;;;;-0.91;100.00;99774.25;4365283;32;20058;-73
2021/12/14 06:46:27;;;;;;;211.02;48.25;;;;;;;-0.71;100.00;99813.69;4357518;32;20044;-73
2021/12/14 06:48:59;;;;;;;217.68;57.58;;;;;;;-0.85;100.00;99780.72;4345524;32;20401;-73
2021/12/14 06:51:39;;;;;;;185.18;50.97;;;;;;;-0.65;100.00;99815.72;4364197;32;20036;-72
2021/12/14 06:54:23;;;;;;;224.02;55.85;;;;;;;-0.70;100.00;99817.97;4353351;32;20044;-73
2021/12/14 06:56:58;;;;;;;221.87;59.25;;;;;;;-0.75;100.00;99824.59;4360959;32;20043;-72
2021/12/14 06:59:26;;;;;;;213.18;56.75;;;;;;;-0.75;100.00;99811.37;4366375;32;20043;-72
2021/12/14 07:02:00;;;;;;;241.82;59.53;;;;;;;-0.82;100.00;99805.03;4366150;32;20039;-73
2021/12/14 07:04:32;;;;;;;214.07;53.50;;;;;;;-0.97;100.00;99753.75;4367425;32;20112;-74
2021/12/14 07:07:04;;;;;;;199.93;55.20;;;;;;;-0.69;100.00;99798.50;4364643;32;20048;-75
2021/12/14 07:09:46;;;;;;;190.50;52.25;;;;;;;-0.69;100.00;99798.50;4353109;32;20081;-73
2021/12/14 07:12:19;;;;;;;171.43;46.50;;;;;;;-0.63;100.00;99808.44;4355218;32;20073;-72
2021/12/14 07:14:53;;;;;;;201.65;52.88;;;;;;;-0.82;100.00;99773.31;4341154;32;20048;-72
2021/12/14 07:17:28;;;;;;;211.60;59.20;;;;;;;-0.57;100.00;99813.94;4359893;32;20431;-73
2021/12/14 07:19:56;;;;;;;188.23;56.35;;;;;;;-0.63;100.00;99805.81;4369146;32;20047;-72
2021/12/14 07:22:23;;;;;;;210.63;53.08;;;;;;;-0.57;100.00;99821.03;4369144;32;20077;-72
2021/12/14 07:25:04;;;;;;;169.23;49.10;;;;;;;-0.60;100.00;99824.00;4366470;32;20041;-73
2021/12/14 07:27:52;;;;;;;196.40;53.08;;;;;;;-0.54;100.00;99812.78;4368340;32;20189;-73
2021/12/14 07:30:25;;;;;;;202.55;57.08;;;;;;;-0.59;100.00;99815.06;4363198;32;20075;-73
2021/12/14 07:33:12;;;;;;;213.57;56.28;;;;;;;-0.59;100.00;99815.06;4343326;32;20396;-73
2021/12/14 07:35:50;;;;;;;231.35;57.78;;;;;;;-0.50;100.00;99822.06;4367652;32;20079;-73
2021/12/14 07:38:20;;;;;;;212.15;57.08;;;;;;;-0.78;100.00;99779.94;4360779;32;20057;-74
2021/12/14 07:40:51;;;;;;;219.62;59.00;;;;;;;-0.79;100.00;99778.28;4369682;32;20077;-73
2021/12/14 07:43:23;;;;;;;215.25;54.70;;;;;;;-0.48;100.00;99812.16;4360046;32;20075;-73
2021/12/14 07:45:52;;;;;;;228.37;56.45;;;;;;;-0.49;100.00;99810.50;4362248;32;20040;-73
2021/12/14 07:48:21;;;;;;;224.77;58.75;;;;;;;-0.66;100.00;99782.31;4370049;32;20231;-74
2021/12/14 07:50:56;;;;;;;227.18;57.53;;;;;;;-0.47;100.00;99811.16;4357255;32;20129;-73
2021/12/14 07:53:42;;;;;;;196.05;52.08;;;;;;;-0.61;100.00;99761.50;4371412;32;20035;-74
2021/12/14 07:56:35;;;;;;;184.25;51.83;;;;;;;-0.54;100.00;99770.47;4369263;32;20032;-73
2021/12/14 07:59:07;;;;;;;;;;;;;;;-0.16;100.00;99818.56;4360847;32;20098;-73
2021/12/14 08:01:34;;;;;;;178.65;49.78;;;;;;;-0.10;100.00;99817.91;4346151;32;20269;-74
2021/12/14 08:04:05;;;;;;;199.90;52.35;;;;;;;-0.32;100.00;99776.16;4355790;32;20097;-73
2021/12/14 08:06:53;;;;;;;175.48;47.83;;;;;;;0.01;100.00;99815.97;4356354;32;20065;-73
2021/12/14 08:09:49;;;;;;;172.02;52.13;;;;;;;0.13;100.00;99809.38;4354417;32;20057;-74
2021/12/14 08:12:29;;;;;;;153.90;45.88;;;;;;;0.01;100.00;99802.72;4356233;32;20040;-73
2021/12/14 08:15:06;;;;;;;159.95;47.35;;;;;;;0.13;100.00;99804.06;4352998;32;20043;-74
2021/12/14 08:17:33;;;;;;;155.45;45.63;;;;;;;0.13;100.00;99804.06;4366422;32;20046;-74
2021/12/14 08:20:00;;;;;;;169.15;50.65;;;;;;;0.19;100.00;99803.41;4369009;32;20047;-73
2021/12/14 08:22:39;;;;;;;166.37;47.50;;;;;;;0.12;100.00;99807.69;4371036;32;20040;-74
2021/12/14 08:25:09;;;;;;;178.18;48.15;;;;;;;-0.05;100.00;99761.81;4370675;32;20055;-73
2021/12/14 08:27:37;;;;;;;164.50;46.88;;;;;;;0.06;100.00;99771.28;4370261;32;20043;-74
2021/12/14 08:30:12;;;;;;;155.12;48.33;;;;;;;0.47;100.00;99824.31;4370278;32;20063;-73
2021/12/14 08:32:40;;;;;;;158.63;48.05;;;;;;;0.56;100.00;99818.03;4366430;32;20048;-72
2021/12/14 08:35:12;;;;;;;152.85;51.10;;;;;;;0.56;100.00;99815.38;4461062;27;20065;-72
2021/12/14 08:37:50;;;;;;;156.77;44.55;;;;;;;0.54;100.00;99812.03;4359150;32;20387;-72
2021/12/14 08:40:31;;;;;;;153.93;48.33;;;;;;;0.58;100.00;99813.38;4370560;32;20490;-71
2021/12/14 08:43:13;;;;;;;157.10;46.17;;;;;;;0.61;100.00;99815.69;4345542;32;20065;-72
2021/12/14 08:46:09;;;;;;;136.88;43.90;;;;;;;0.75;100.00;99818.66;4353598;32;20032;-73
2021/12/14 08:48:42;;;;;;;148.52;43.53;;;;;;;0.57;100.00;99790.50;4353764;32;20147;-72
2021/12/14 08:51:36;;;;;;;153.73;42.80;;;;;;;0.74;100.00;99811.72;4352255;32;20040;-73
2021/12/14 08:54:25;;;;;;;144.07;40.95;;;;;;;0.75;100.00;99819.50;4359005;32;20158;-73
2021/12/14 08:57:18;;;;;;;140.25;41.95;;;;;;;0.90;100.00;99817.00;4366517;32;20066;-74
2021/12/14 08:59:51;;;;;;;139.95;43.03;;;;;;;0.80;100.00;99825.13;4352720;32;20065;-74
2021/12/14 09:02:19;;;;;;;136.35;41.85;;;;;;;0.67;100.00;99780.59;4353917;32;20035;-75
2021/12/14 09:05:01;;;;;;;143.87;42.92;;;;;;;0.95;100.00;99817.31;4361756;32;20479;-73
2021/12/14 09:07:30;;;;;;;156.60;44.08;;;;;;;0.80;100.00;99774.75;4360982;32;20443;-73
2021/12/14 09:09:59;;;;;;;160.12;42.83;;;;;;;0.83;100.00;99773.59;4354537;32;20079;-73
2021/12/14 09:12:36;;;;;;;147.43;43.85;;;;;;;1.06;100.00;99822.28;4353921;32;20047;-73
2021/12/14 09:15:20;;;;;;;130.55;39.95;;;;;;;1.17;100.00;99817.63;4354525;32;20159;-71
2021/12/14 09:17:48;;;;;;;135.88;45.38;;;;;;;1.00;100.00;99814.16;4353880;33;20357;-75
2021/12/14 09:20:23;;;;;;;139.98;45.75;;;;;;;0.98;100.00;99809.03;4354688;33;20063;-73
2021/12/14 09:22:53;;;;;;;135.52;39.28;;;;;;;1.08;100.00;99812.31;4358579;32;20035;-73
2021/12/14 09:25:26;;;;;;;140.20;43.60;;;;;;;1.14;100.00;99799.41;4370161;32;20040;-73
2021/12/14 09:27:54;;;;;;;152.00;44.58;;;;;;;1.19;100.00;99800.53;4370199;32;20149;-74
2021/12/14 09:30:23;;;;;;;128.65;42.00;;;;;;;1.18;100.00;99798.03;4359657;32;20040;-74
2021/12/14 09:32:50;;;;;;;134.20;42.10;;;;;;;1.27;100.00;99797.03;4373626;32;20356;-73
2021/12/14 09:35:21;;;;;;;144.80;42.08;;;;;;;1.16;100.00;99797.41;4348277;32;20478;-74
2021/12/14 09:37:53;;;;;;;137.95;42.38;;;;;;;1.02;100.00;99757.31;4357932;32;20047;-74
2021/12/14 09:40:31;;;;;;;113.15;38.30;;;;;;;1.23;100.00;99779.81;4344902;32;20050;-74
2021/12/14 09:42:58;;;;;;;134.70;40.45;;;;;;;1.16;100.00;99774.34;4357962;32;20040;-74
2021/12/14 09:45:43;;;;;;;130.85;42.10;;;;;;;1.14;100.00;99751.66;4356124;32;20036;-75
2021/12/14 09:48:13;;;;;;;124.70;39.00;;;;;;;1.40;100.00;99792.00;4357291;32;20053;-74
2021/12/14 09:50:41;;;;;;;117.55;33.90;;;;;;;1.31;100.00;99787.75;4357687;32;20050;-74
2021/12/14 09:53:11;;;;;;;133.93;41.70;;;;;;;1.27;100.00;99786.41;4356097;32;20083;-74
2021/12/14 09:55:41;;;;;;;125.40;40.92;;;;;;;1.27;100.00;99781.13;4343402;32;20115;-74
2021/12/14 09:58:13;;;;;;;182.00;62.60;;;;;;;1.26;100.00;99774.13;4358014;32;20086;-75
2021/12/14 10:00:50;;;;;;;192.07;63.92;;;;;;;1.32;100.00;99778.78;4346089;32;20066;-74
2021/12/14 10:03:17;;;;;;;209.60;58.28;;;;;;;1.12;100.00;99729.75;4354838;32;20035;-73
2021/12/14 10:05:52;;;;;;;185.10;51.97;;;;;;;1.38;100.00;99771.97;4363756;32;20031;-73
2021/12/14 10:08:25;;;;;;;127.32;41.42;;;;;;;1.18;100.00;99713.16;4361447;32;20215;-72
2021/12/14 10:11:03;;;;;;;125.32;39.92;;;;;;;1.33;100.00;99722.06;4355846;32;20044;-73
2021/12/14 10:13:33;;;;;;;159.95;48.08;;;;;;;1.59;100.00;99752.78;4365294;32;20069;-72
2021/12/14 10:16:03;;;;;;;121.60;36.42;;;;;;;1.58;100.00;99765.25;4370522;32;20085;-72
2021/12/14 10:18:35;;;;;;;112.95;34.92;;;;;;;1.40;100.00;99719.53;4372874;32;20064;-74
2021/12/14 10:21:08;;;;;;;98.43;32.50;;;;;;;1.69;100.00;99758.72;4357891;32;20429;-75
2021/12/14 10:23:38;;;;;;;125.40;35.60;;;;;;;1.45;100.00;99741.91;4356807;32;20052;-74
2021/12/14 10:26:06;;;;;;;116.30;32.75;;;;;;;1.36;100.00;99715.59;4370358;32;20487;-72
2021/12/14 10:28:36;;;;;;;90.90;33.00;;;;;;;1.72;100.00;99750.37;4370668;32;20048;-75
2021/12/14 10:31:19;;;;;;;112.60;34.03;;;;;;;1.27;100.00;99712.13;4371113;32;20442;-73
2021/12/14 10:33:46;;;;;;;121.80;30.92;;;;;;;1.53;100.00;99748.16;4372764;32;20051;-76
2021/12/14 10:36:28;;;;;;;91.80;28.40;;;;;;;1.60;100.00;99749.16;4370947;32;20123;-75
2021/12/14 10:39:22;;;;;;;103.10;27.55;;;;;;;1.47;100.00;99751.50;4372487;32;20036;-76
2021/12/14 10:44:55;;;;;;;97.60;30.60;;;;;;;1.48;100.00;99747.88;4311105;33;20037;-77
2021/12/14 10:47:25;;;;;;;107.57;31.37;;;;;;;1.48;100.00;99746.03;4357649;32;20032;-76
2021/12/14 10:49:53;;;;;;;111.57;29.90;;;;;;;1.20;100.00;99705.88;4372074;32;20333;-76
2021/12/14 10:52:24;;;;;;;115.43;35.05;;;;;;;1.04;100.00;99689.00;4372042;32;20044;-76
2021/12/14 10:54:55;;;;;;;101.12;34.05;;;;;;;1.10;100.00;99700.75;4372298;32;20072;-76
2021/12/14 10:57:26;;;;;;;112.22;31.30;;;;;;;1.51;100.00;99739.56;4358294;32;20028;-76
2021/12/14 10:59:56;;;;;;;103.47;31.85;;;;;;;1.48;100.00;99743.38;4357223;32;20353;-74
2021/12/14 11:02:26;;;;;;;144.93;35.85;;;;;;;1.36;100.00;99715.59;4370721;32;20039;-74
2021/12/14 11:04:58;;;;;;;141.37;31.25;;;;;;;1.53;100.00;99734.91;4371607;32;20061;-74
2021/12/14 11:07:37;;;;;;;115.55;33.63;;;;;;;1.45;100.00;99731.31;4357103;32;20445;-75
2021/12/14 11:10:12;;;;;;;99.70;29.12;;;;;;;1.17;100.00;99696.41;4367189;32;20077;-76
2021/12/14 11:12:43;;;;;;;121.68;34.88;;;;;;;1.52;100.00;99751.84;4361757;32;20056;-74
2021/12/14 11:15:22;;;;;;;128.32;37.00;;;;;;;1.43;100.00;99738.59;4356849;32;20432;-75
2021/12/14 11:18:11;;;;;;;121.40;31.05;;;;;;;1.21;100.00;99683.63;4366457;32;20043;-75
2021/12/14 11:20:57;;;;;;;116.07;34.53;;;;;;;1.53;100.00;99733.09;4370848;32;20108;-74
2021/12/14 11:23:29;;;;;;;103.57;32.88;;;;;;;1.34;100.00;99694.53;4371880;32;20043;-74
2021/12/14 11:25:59;;;;;;;106.32;33.22;;;;;;;1.32;100.00;99683.25;4370167;32;20047;-75
2021/12/14 11:28:33;;;;;;;119.60;33.95;;;;;;;1.59;100.00;99732.38;4368754;32;20140;-76
2021/12/14 11:31:12;;;;;;;125.85;36.38;;;;;;;1.46;100.00;99679.03;4355356;32;20056;-76
2021/12/14 11:33:45;;;;;;;140.15;35.63;;;;;;;1.76;100.00;99727.81;4356346;32;20384;-76
2021/12/14 11:36:17;;;;;;;120.05;33.92;;;;;;;1.70;100.00;99707.25;4353834;32;20066;-76
2021/12/14 11:38:53;;;;;;;96.90;30.12;;;;;;;1.43;100.00;99690.81;4356245;32;20059;-76
2021/12/14 11:41:35;;;;;;;117.37;29.85;;;;;;;1.62;100.00;99725.91;4355926;32;20040;-75
2021/12/14 11:44:11;;;;;;;94.57;28.92;;;;;;;1.74;100.00;99719.19;4354535;32;20066;-75
2021/12/14 11:46:53;;;;;;;104.97;28.85;;;;;;;1.60;100.00;99711.97;4355153;32;20204;-75
2021/12/14 11:49:22;;;;;;;97.97;30.12;;;;;;;1.59;100.00;99718.28;4356534;32;20065;-75
2021/12/14 11:51:50;;;;;;;82.50;22.87;;;;;;;1.72;100.00;99721.19;4362798;32;20204;-74
2021/12/14 11:54:19;;;;;;;91.43;29.70;;;;;;;1.61;100.00;99722.44;4371151;32;20055;-75
2021/12/14 11:56:48;;;;;;;95.05;27.73;;;;;;;1.62;100.00;99709.97;4357339;32;20372;-75
2021/12/14 11:59:16;;;;;;;115.05;30.17;;;;;;;1.55;100.00;99698.41;4358188;32;20027;-75
2021/12/14 12:01:52;;;;;;;110.20;32.22;;;;;;;1.53;100.00;99697.75;4358724;32;20083;-75
2021/12/14 12:04:24;;;;;;;107.93;31.35;;;;;;;1.56;100.00;99711.47;4363853;32;20051;-75
2021/12/14 12:09:32;;;;;;;93.03;29.92;;;;;;;1.57;100.00;99704.37;4354258;32;20063;-74
2021/12/14 12:12:05;;;;;;;97.37;30.23;;;;;;;1.50;100.00;99706.03;4344938;32;20052;-75